createdAt,value
2018-12-04T00:01:13.554Z,12.16
2018-12-04T00:03:44.221Z,12.18
2018-12-04T00:06:14.397Z,12.22
2018-12-04T00:08:44.642Z,12.25
2018-12-04T00:11:15.653Z,12.26
2018-12-04T00:13:46.020Z,12.26
2018-12-04T00:16:17.156Z,12.28
2018-12-04T00:18:47.979Z,12.29
2018-12-04T00:21:18.200Z,11.78
2018-12-04T00:23:48.748Z,12.18
2018-12-04T00:26:20.155Z,12.14
2018-12-04T00:28:50.470Z,12.04
2018-12-04T00:31:21.633Z,12.03
2018-12-04T00:33:52.076Z,12.12
2018-12-04T00:36:22.081Z,12.24
2018-12-04T00:38:52.808Z,11.55
2018-12-04T00:41:23.120Z,12.22
2018-12-04T00:43:53.473Z,12.21
2018-12-04T00:46:24.308Z,12.32
2018-12-04T00:48:54.571Z,12.29
2018-12-04T00:51:24.425Z,12.24
2018-12-04T00:53:55.901Z,12.31
2018-12-04T00:56:27.249Z,12.30
2018-12-04T00:58:57.778Z,12.26
2018-12-04T01:01:28.002Z,12.24
2018-12-04T01:03:58.468Z,12.24
2018-12-04T01:06:28.669Z,12.18
2018-12-04T01:09:00.421Z,12.03
2018-12-04T01:11:30.627Z,12.02
2018-12-04T01:14:01.855Z,11.99
2018-12-04T01:16:32.288Z,12.04
2018-12-04T01:19:02.570Z,12.00
2018-12-04T01:21:33.409Z,11.97
2018-12-04T01:24:04.947Z,11.96
2018-12-04T01:26:35.121Z,11.97
2018-12-04T01:29:05.549Z,12.00
2018-12-04T01:31:36.897Z,11.92
2018-12-04T01:34:07.635Z,11.82
2018-12-04T01:36:38.283Z,11.84
2018-12-04T01:39:09.487Z,11.74
2018-12-04T01:41:39.627Z,11.56
2018-12-04T01:44:09.872Z,11.63
2018-12-04T01:46:40.644Z,11.48
2018-12-04T01:49:12.598Z,11.36
2018-12-04T01:51:43.420Z,11.32
2018-12-04T01:54:14.113Z,11.25
2018-12-04T01:56:44.153Z,11.21
2018-12-04T01:59:15.241Z,11.18
2018-12-04T02:01:46.292Z,11.17
2018-12-04T02:04:16.853Z,11.25
2018-12-04T02:06:46.881Z,11.18
2018-12-04T02:09:17.790Z,11.09
2018-12-04T02:11:48.253Z,10.97
2018-12-04T02:14:18.421Z,11.01
2018-12-04T02:16:48.585Z,11.01
2018-12-04T02:19:19.056Z,11.10
2018-12-04T02:21:49.944Z,11.15
2018-12-04T02:24:20.837Z,11.17
2018-12-04T02:26:50.948Z,11.24
2018-12-04T02:29:21.206Z,11.27
2018-12-04T02:31:51.548Z,11.21
2018-12-04T02:34:22.597Z,11.22
2018-12-04T02:36:53.184Z,11.25
2018-12-04T02:39:23.966Z,11.34
2018-12-04T02:41:55.415Z,11.33
2018-12-04T02:44:25.544Z,11.35
2018-12-04T02:46:55.760Z,11.49
2018-12-04T02:49:25.950Z,11.58
2018-12-04T02:51:56.802Z,11.64
2018-12-04T02:54:27.524Z,11.68
2018-12-04T02:56:58.704Z,11.55
2018-12-04T02:59:29.269Z,11.40
2018-12-04T03:01:59.479Z,11.21
2018-12-04T03:04:30.541Z,10.94
2018-12-04T03:07:01.733Z,10.67
2018-12-04T03:09:31.855Z,10.40
2018-12-04T03:12:02.929Z,10.29
2018-12-04T03:14:34.459Z,10.25
2018-12-04T03:17:05.285Z,10.07
2018-12-04T03:19:35.867Z,10.05
2018-12-04T03:22:06.869Z,10.12
2018-12-04T03:24:37.085Z,10.09
2018-12-04T03:27:07.608Z,10.15
2018-12-04T03:29:37.895Z,10.22
2018-12-04T03:32:07.981Z,10.31
2018-12-04T03:34:39.153Z,10.35
2018-12-04T03:37:09.392Z,10.46
2018-12-04T03:39:40.248Z,10.42
2018-12-04T03:42:11.390Z,10.46
2018-12-04T03:44:42.238Z,10.50
2018-12-04T03:47:13.375Z,10.55
2018-12-04T03:49:43.522Z,10.63
2018-12-04T03:52:14.075Z,10.65
2018-12-04T03:54:44.123Z,10.66
2018-12-04T03:57:14.898Z,10.58
2018-12-04T03:59:45.529Z,10.49
2018-12-04T04:02:15.971Z,10.47
2018-12-04T04:04:46.106Z,10.47
2018-12-04T04:07:16.797Z,10.16
2018-12-04T04:09:46.990Z,10.08
2018-12-04T04:12:21.353Z,10.03
2018-12-04T04:14:52.447Z,9.96
2018-12-04T04:17:22.492Z,9.97
2018-12-04T04:19:53.034Z,9.90
2018-12-04T04:22:23.362Z,9.84
2018-12-04T04:24:53.894Z,9.70
2018-12-04T04:27:24.224Z,9.61
2018-12-04T04:29:54.918Z,9.53
2018-12-04T04:32:25.116Z,9.48
2018-12-04T04:34:55.306Z,9.33
2018-12-04T04:37:26.354Z,9.18
2018-12-04T04:39:56.513Z,9.08
2018-12-04T04:42:26.966Z,8.96
2018-12-04T04:44:58.209Z,8.97
2018-12-04T04:47:28.408Z,8.99
2018-12-04T04:49:59.162Z,8.91
2018-12-04T04:52:30.464Z,8.95
2018-12-04T04:55:03.645Z,8.90
2018-12-04T04:57:33.928Z,8.93
2018-12-04T05:00:05.382Z,8.95
2018-12-04T05:02:35.755Z,9.01
2018-12-04T05:05:06.332Z,9.01
2018-12-04T05:07:36.700Z,9.00
2018-12-04T05:10:14.656Z,9.09
2018-12-04T05:12:44.915Z,9.11
2018-12-04T05:15:15.346Z,9.19
2018-12-04T05:17:48.477Z,9.18
2018-12-04T05:20:18.575Z,9.16
2018-12-04T05:22:49.139Z,9.19
2018-12-04T05:25:19.371Z,9.16
2018-12-04T05:27:49.714Z,9.15
2018-12-04T05:30:20.100Z,9.16
2018-12-04T05:32:50.026Z,9.13
2018-12-04T05:35:20.250Z,9.11
2018-12-04T05:37:50.611Z,9.19
2018-12-04T05:40:20.675Z,9.22
2018-12-04T05:42:50.929Z,9.27
2018-12-04T05:45:21.627Z,9.27
2018-12-04T05:47:51.560Z,9.36
2018-12-04T05:50:21.592Z,9.35
2018-12-04T05:54:00.849Z,9.35
2018-12-04T05:56:31.308Z,9.46
2018-12-04T05:59:01.949Z,9.03
2018-12-04T06:01:31.829Z,9.46
2018-12-04T06:04:02.027Z,9.52
2018-12-04T06:06:32.470Z,9.51
2018-12-04T06:09:03.713Z,9.49
2018-12-04T06:11:34.748Z,9.49
2018-12-04T06:14:05.278Z,9.45
2018-12-04T06:16:35.487Z,9.49
2018-12-04T06:19:05.916Z,9.18
2018-12-04T06:21:36.695Z,8.98
2018-12-04T06:24:07.322Z,8.31
2018-12-04T06:26:37.908Z,8.79
2018-12-04T06:29:08.467Z,8.77
2018-12-04T06:31:38.778Z,8.75
2018-12-04T06:34:09.421Z,8.83
2018-12-04T06:36:39.873Z,8.85
2018-12-04T06:39:10.371Z,8.87
2018-12-04T06:41:40.780Z,8.89
2018-12-04T06:44:11.203Z,8.95
2018-12-04T06:46:41.085Z,8.91
2018-12-04T06:49:11.127Z,8.87
2018-12-04T06:51:41.537Z,8.82
2018-12-04T06:54:11.309Z,8.86
2018-12-04T06:56:41.665Z,8.85
2018-12-04T06:59:12.321Z,8.86
2018-12-04T07:01:42.968Z,8.80
2018-12-04T07:04:13.155Z,8.76
2018-12-04T07:06:45.142Z,8.66
2018-12-04T07:09:16.230Z,8.70
2018-12-04T07:11:46.343Z,8.77
2018-12-04T07:14:17.067Z,8.85
2018-12-04T07:16:47.049Z,8.83
2018-12-04T07:19:17.044Z,8.78
2018-12-04T07:21:47.171Z,8.79
2018-12-04T07:24:17.357Z,8.71
2018-12-04T07:26:47.615Z,8.65
2018-12-04T07:29:18.608Z,8.64
2018-12-04T07:31:48.787Z,8.50
2018-12-04T07:34:19.605Z,8.32
2018-12-04T07:36:51.581Z,8.29
2018-12-04T07:39:22.784Z,7.72
2018-12-04T07:41:55.215Z,8.44
2018-12-04T07:44:25.732Z,8.30
2018-12-04T07:46:56.788Z,8.41
2018-12-04T07:49:28.191Z,8.41
2018-12-04T07:51:59.072Z,8.38
2018-12-04T07:54:31.230Z,8.37
2018-12-04T07:57:01.518Z,8.37
2018-12-04T07:59:32.553Z,8.40
2018-12-04T08:02:02.981Z,8.44
2018-12-04T08:04:34.701Z,8.42
2018-12-04T08:07:04.998Z,8.47
2018-12-04T08:09:36.645Z,8.67
2018-12-04T08:12:06.599Z,8.75
2018-12-04T08:14:36.924Z,8.84
2018-12-04T08:17:07.967Z,8.91
2018-12-04T08:19:39.175Z,8.97
2018-12-04T08:22:09.547Z,9.10
2018-12-04T08:24:40.131Z,9.25
2018-12-04T08:27:12.372Z,9.23
2018-12-04T08:29:42.853Z,9.31
2018-12-04T08:32:13.201Z,9.34
2018-12-04T08:34:44.113Z,9.38
2018-12-04T08:37:15.211Z,9.51
2018-12-04T08:39:46.160Z,9.55
2018-12-04T08:42:17.631Z,9.65
2018-12-04T08:49:07.642Z,9.73
2018-12-04T08:51:37.667Z,9.55
2018-12-04T08:54:07.895Z,9.64
2018-12-04T08:56:39.996Z,9.69
2018-12-04T08:59:10.164Z,9.75
2018-12-04T09:01:40.573Z,9.77
2018-12-04T09:04:11.481Z,9.88
2018-12-04T09:06:41.509Z,9.88
2018-12-04T09:09:12.821Z,9.94
2018-12-04T09:11:42.941Z,10.01
2018-12-04T09:14:13.736Z,10.03
2018-12-04T09:16:43.840Z,9.93
2018-12-04T09:19:14.366Z,9.96
2018-12-04T09:21:44.670Z,9.90
2018-12-04T09:24:15.157Z,9.90
2018-12-04T09:26:45.331Z,9.95
2018-12-04T09:29:15.994Z,9.79
2018-12-04T09:31:46.379Z,9.69
2018-12-04T09:34:17.070Z,9.83
2018-12-04T09:36:47.208Z,9.72
2018-12-04T09:39:17.390Z,9.52
2018-12-04T09:41:47.749Z,9.50
2018-12-04T09:44:20.560Z,9.28
2018-12-04T09:46:51.636Z,9.29
2018-12-04T09:49:21.528Z,9.25
2018-12-04T09:51:51.950Z,9.17
2018-12-04T09:54:21.770Z,9.15
2018-12-04T09:56:53.223Z,9.11
2018-12-04T09:59:26.174Z,9.07
2018-12-04T10:01:56.540Z,9.11
2018-12-04T10:04:29.691Z,9.15
2018-12-04T10:06:59.781Z,9.23
2018-12-04T10:09:30.420Z,9.35
2018-12-04T10:12:02.131Z,9.64
2018-12-04T10:14:32.179Z,9.84
2018-12-04T10:17:02.387Z,10.03
2018-12-04T10:19:32.668Z,10.09
2018-12-04T10:22:06.488Z,10.14
2018-12-04T10:24:38.262Z,10.15
2018-12-04T10:27:08.384Z,10.10
2018-12-04T10:29:38.759Z,10.12
2018-12-04T10:32:09.404Z,10.13
2018-12-04T10:34:39.412Z,10.12
2018-12-04T10:37:09.620Z,9.92
2018-12-04T10:39:40.349Z,9.67
2018-12-04T10:42:10.567Z,9.62
2018-12-04T10:44:41.126Z,9.62
2018-12-04T10:47:11.806Z,9.48
2018-12-04T10:49:41.830Z,9.45
2018-12-04T10:52:11.667Z,9.40
2018-12-04T10:54:41.791Z,9.50
2018-12-04T10:57:12.038Z,9.66
2018-12-04T10:59:42.195Z,9.82
2018-12-04T11:02:17.246Z,9.98
2018-12-04T11:04:47.109Z,10.28
2018-12-04T11:07:17.194Z,10.33
2018-12-04T11:09:47.589Z,10.33
2018-12-04T11:12:18.410Z,10.39
2018-12-04T11:14:49.772Z,10.35
2018-12-04T11:17:19.656Z,10.29
2018-12-04T11:19:49.681Z,10.23
2018-12-04T11:22:20.320Z,9.64
2018-12-04T11:24:50.214Z,10.14
2018-12-04T11:27:20.432Z,10.14
2018-12-04T11:29:50.879Z,10.05
2018-12-04T11:32:21.046Z,9.86
2018-12-04T11:34:51.227Z,9.70
2018-12-04T11:37:21.701Z,9.51
2018-12-04T11:39:52.633Z,9.38
2018-12-04T11:42:22.633Z,9.21
2018-12-04T11:44:52.884Z,9.16
2018-12-04T11:47:23.240Z,9.17
2018-12-04T11:49:53.073Z,9.19
2018-12-04T11:52:23.251Z,9.20
2018-12-04T11:54:54.354Z,9.24
2018-12-04T11:57:24.349Z,9.28
2018-12-04T11:59:54.971Z,9.34
2018-12-04T12:02:24.989Z,9.43
2018-12-04T12:04:55.520Z,9.53
2018-12-04T12:07:25.895Z,9.65
2018-12-04T12:09:55.885Z,9.78
2018-12-04T12:12:25.728Z,9.94
2018-12-04T12:14:55.934Z,10.27
2018-12-04T12:22:55.588Z,10.22
2018-12-04T12:25:26.063Z,10.13
2018-12-04T12:27:56.270Z,10.15
2018-12-04T12:30:27.008Z,9.84
2018-12-04T12:32:58.283Z,9.85
2018-12-04T12:35:29.945Z,10.02
2018-12-04T12:38:00.904Z,10.05
2018-12-04T12:40:31.936Z,10.12
2018-12-04T12:43:01.895Z,10.11
2018-12-04T12:45:31.918Z,10.00
2018-12-04T12:48:02.265Z,10.07
2018-12-04T12:50:32.451Z,9.56
2018-12-04T12:53:02.832Z,10.36
2018-12-04T12:55:33.800Z,10.49
2018-12-04T12:58:04.814Z,10.49
2018-12-04T13:00:36.218Z,10.33
2018-12-04T13:03:06.273Z,10.32
2018-12-04T13:05:41.492Z,10.37
2018-12-04T13:08:20.072Z,10.29
2018-12-04T13:10:53.455Z,10.12
2018-12-04T13:13:29.116Z,9.95
2018-12-04T13:16:01.566Z,9.87
2018-12-04T13:18:31.930Z,9.88
2018-12-04T13:21:02.188Z,9.90
2018-12-04T13:23:32.197Z,9.83
2018-12-04T13:26:03.455Z,9.68
2018-12-04T13:28:33.493Z,9.47
2018-12-04T13:31:04.201Z,9.48
2018-12-04T13:33:34.082Z,9.50
2018-12-04T13:36:08.790Z,9.46
2018-12-04T13:38:39.919Z,9.51
2018-12-04T13:41:13.192Z,9.58
2018-12-04T13:43:43.196Z,9.48
2018-12-04T13:46:13.874Z,9.50
2018-12-04T13:48:43.767Z,9.54
2018-12-04T13:51:14.395Z,9.43
2018-12-04T13:53:44.713Z,9.49
2018-12-04T13:56:14.836Z,9.55
2018-12-04T13:58:48.970Z,9.38
2018-12-04T14:01:19.289Z,9.03
2018-12-04T14:03:49.281Z,8.71
2018-12-04T14:06:19.433Z,8.52
2018-12-04T14:08:49.410Z,8.48
2018-12-04T14:11:19.938Z,8.27
2018-12-04T14:13:50.094Z,8.31
2018-12-04T14:16:20.489Z,8.28
2018-12-04T14:18:51.345Z,8.06
2018-12-04T14:21:22.280Z,8.01
2018-12-04T14:23:52.776Z,7.95
2018-12-04T14:26:22.653Z,7.96
2018-12-04T14:28:52.760Z,7.94
2018-12-04T14:31:22.894Z,7.90
2018-12-04T14:33:53.361Z,7.86
2018-12-04T14:36:23.807Z,7.86
2018-12-04T14:38:54.811Z,7.84
2018-12-04T14:41:25.669Z,7.95
2018-12-04T14:43:55.681Z,7.87
2018-12-04T14:46:26.583Z,7.98
2018-12-04T14:48:56.551Z,7.97
2018-12-04T14:51:26.567Z,7.94
2018-12-04T14:53:56.511Z,7.87
2018-12-04T14:56:27.788Z,7.81
2018-12-04T14:58:58.045Z,7.78
2018-12-04T15:01:29.682Z,7.72
2018-12-04T15:04:01.417Z,7.71
2018-12-04T15:06:33.741Z,7.69
2018-12-04T15:09:06.079Z,7.58
2018-12-04T15:11:36.573Z,7.54
2018-12-04T15:14:06.783Z,7.55
2018-12-04T15:16:37.314Z,7.47
2018-12-04T15:19:07.247Z,7.44
2018-12-04T15:21:37.225Z,7.41
2018-12-04T15:24:11.376Z,7.39
2018-12-04T15:26:42.052Z,7.39
2018-12-04T15:29:14.419Z,7.34
2018-12-04T15:31:44.620Z,7.21
2018-12-04T15:34:14.746Z,7.20
2018-12-04T15:36:45.228Z,7.23
2018-12-04T15:39:17.475Z,7.15
2018-12-04T15:41:48.439Z,7.11
2018-12-04T15:44:19.254Z,7.10
2018-12-04T15:46:52.838Z,7.09
2018-12-04T15:49:23.381Z,7.10
2018-12-04T15:51:54.854Z,7.04
2018-12-04T15:54:26.326Z,6.28
2018-12-04T15:56:57.979Z,6.92
2018-12-04T15:59:29.576Z,6.86
2018-12-04T16:02:08.902Z,6.86
2018-12-04T16:04:45.454Z,6.69
2018-12-04T16:07:27.927Z,6.73
2018-12-04T16:12:41.451Z,6.64
2018-12-04T16:15:11.570Z,6.64
2018-12-04T16:17:43.684Z,6.65
2018-12-04T16:20:15.845Z,6.61
2018-12-04T16:22:46.411Z,6.56
2018-12-04T16:25:18.205Z,6.53
2018-12-04T16:27:48.950Z,6.52
2018-12-04T16:33:02.929Z,6.41
2018-12-04T16:35:33.061Z,6.40
2018-12-04T16:38:03.126Z,5.79
2018-12-04T16:40:33.785Z,6.46
2018-12-04T16:43:04.590Z,6.44
2018-12-04T16:45:34.959Z,6.42
2018-12-04T16:48:05.123Z,6.41
2018-12-04T16:50:35.541Z,6.42
2018-12-04T16:53:05.992Z,6.33
2018-12-04T16:55:36.558Z,6.34
2018-12-04T16:58:06.988Z,6.30
2018-12-04T17:00:38.465Z,6.30
2018-12-04T17:03:10.232Z,6.27
2018-12-04T17:05:40.231Z,6.26
2018-12-04T17:08:10.798Z,6.23
2018-12-04T17:10:41.007Z,6.20
2018-12-04T17:13:11.201Z,6.16
2018-12-04T17:15:41.311Z,6.12
2018-12-04T17:18:13.629Z,6.09
2018-12-04T17:20:44.863Z,6.06
2018-12-04T17:23:14.910Z,6.04
2018-12-04T17:25:45.859Z,6.00
2018-12-04T17:28:18.724Z,5.96
2018-12-04T17:30:50.628Z,5.94
2018-12-04T17:33:22.655Z,5.90
2018-12-04T17:35:53.221Z,5.83
2018-12-04T17:38:23.233Z,5.80
2018-12-04T17:40:53.305Z,5.78
2018-12-04T17:43:24.078Z,5.76
2018-12-04T17:45:54.058Z,5.72
2018-12-04T17:48:25.401Z,5.71
2018-12-04T17:50:55.947Z,5.69
2018-12-04T17:53:27.437Z,5.68
2018-12-04T17:55:58.721Z,5.66
2018-12-04T17:58:30.303Z,5.00
2018-12-04T18:01:00.873Z,5.65
2018-12-04T18:03:31.268Z,5.66
2018-12-04T18:06:04.405Z,5.65
2018-12-04T18:08:37.653Z,5.64
2018-12-04T18:11:19.795Z,5.60
2018-12-04T18:14:04.227Z,5.59
2018-12-04T18:16:35.712Z,5.56
2018-12-04T18:19:09.804Z,5.50
2018-12-04T18:21:42.182Z,5.49
2018-12-04T18:24:16.747Z,5.47
2018-12-04T18:26:48.140Z,5.44
2018-12-04T18:29:19.970Z,4.10
2018-12-04T18:31:49.951Z,5.36
2018-12-04T18:34:20.084Z,5.30
2018-12-04T18:36:50.464Z,5.31
2018-12-04T18:39:20.440Z,5.28
2018-12-04T18:41:50.636Z,5.29
2018-12-04T18:44:21.384Z,5.29
2018-12-04T18:46:51.636Z,5.31
2018-12-04T18:49:21.729Z,5.30
2018-12-04T18:51:52.688Z,5.29
2018-12-04T18:54:22.864Z,5.28
2018-12-04T18:56:53.665Z,5.22
2018-12-04T18:59:24.085Z,5.20
2018-12-04T19:01:54.057Z,5.17
2018-12-04T19:04:24.200Z,5.16
2018-12-04T19:06:54.682Z,5.14
2018-12-04T19:09:25.865Z,5.10
2018-12-04T19:11:56.262Z,5.08
2018-12-04T19:14:26.173Z,5.06
2018-12-04T19:16:56.515Z,5.06
2018-12-04T19:19:27.254Z,5.03
2018-12-04T19:21:57.291Z,5.03
2018-12-04T19:24:27.262Z,5.04
2018-12-04T19:26:58.350Z,5.02
2018-12-04T19:29:29.205Z,4.99
2018-12-04T19:31:59.698Z,4.97
2018-12-04T19:34:31.356Z,4.96
2018-12-04T19:37:03.360Z,4.92
2018-12-04T19:39:35.058Z,4.90
2018-12-04T19:42:05.746Z,4.92
2018-12-04T19:44:36.445Z,4.93
2018-12-04T19:47:08.550Z,4.89
2018-12-04T19:49:40.184Z,4.87
2018-12-04T19:52:10.521Z,4.89
2018-12-04T19:54:42.815Z,4.88
2018-12-04T19:57:12.996Z,4.86
2018-12-04T19:59:43.308Z,4.85
2018-12-04T20:02:13.942Z,4.83
2018-12-04T20:04:43.917Z,4.79
2018-12-04T20:07:14.915Z,4.79
2018-12-04T20:09:45.640Z,4.77
2018-12-04T20:12:18.987Z,4.73
2018-12-04T20:14:50.326Z,4.19
2018-12-04T20:17:20.371Z,4.67
2018-12-04T20:19:51.276Z,4.63
2018-12-04T20:22:21.987Z,4.63
2018-12-04T20:24:53.266Z,4.64
2018-12-04T20:27:23.679Z,4.64
2018-12-04T20:29:54.091Z,4.57
2018-12-04T20:32:25.585Z,4.55
2018-12-04T20:34:55.553Z,4.56
2018-12-04T20:37:25.549Z,4.52
2018-12-04T20:39:56.879Z,4.46
2018-12-04T20:42:26.807Z,4.43
2018-12-04T20:44:57.819Z,4.44
2018-12-04T20:47:27.701Z,4.45
2018-12-04T20:49:58.004Z,4.45
2018-12-04T20:52:27.972Z,4.44
2018-12-04T20:54:58.567Z,4.45
2018-12-04T20:57:28.498Z,4.41
2018-12-04T20:59:58.994Z,4.36
2018-12-04T21:02:29.042Z,4.34
2018-12-04T21:05:00.702Z,4.33
2018-12-04T21:07:30.750Z,4.28
2018-12-04T21:10:01.027Z,4.29
2018-12-04T21:12:32.089Z,4.26
2018-12-04T21:15:03.121Z,4.25
2018-12-04T21:17:33.328Z,4.26
2018-12-04T21:20:04.370Z,4.26
2018-12-04T21:22:35.980Z,4.20
2018-12-04T21:25:08.162Z,4.15
2018-12-04T21:27:43.055Z,4.10
2018-12-04T21:30:18.252Z,4.10
2018-12-04T21:32:53.159Z,4.06
2018-12-04T21:35:28.094Z,4.07
2018-12-04T21:38:04.097Z,4.09
2018-12-04T21:40:39.480Z,4.11
2018-12-04T21:43:14.487Z,4.10
2018-12-04T21:45:50.383Z,4.10
2018-12-04T21:48:24.201Z,4.06
2018-12-04T21:50:55.303Z,4.04
2018-12-04T21:53:26.091Z,4.07
2018-12-04T21:55:57.214Z,4.06
2018-12-04T21:58:29.967Z,3.62
2018-12-04T22:01:00.391Z,4.01
2018-12-04T22:03:31.079Z,3.96
2018-12-04T22:06:01.916Z,3.93
2018-12-04T22:08:32.419Z,3.97
2018-12-04T22:11:03.615Z,3.94
2018-12-04T22:13:34.194Z,3.89
2018-12-04T22:16:04.419Z,3.88
2018-12-04T22:18:35.003Z,3.85
2018-12-04T22:21:05.425Z,3.83
2018-12-04T22:23:36.148Z,3.86
2018-12-04T22:26:10.192Z,3.87
2018-12-04T22:28:40.360Z,3.85
2018-12-04T22:31:10.565Z,3.86
2018-12-04T22:33:41.478Z,3.86
2018-12-04T22:36:12.453Z,3.86
2018-12-04T22:38:42.742Z,3.84
2018-12-04T22:41:14.168Z,3.82
2018-12-04T22:43:44.531Z,3.77
2018-12-04T22:46:15.163Z,3.74
2018-12-04T22:48:45.588Z,3.73
2018-12-04T22:51:16.989Z,3.72
2018-12-04T22:53:46.864Z,3.71
2018-12-04T22:56:17.105Z,3.69
2018-12-04T22:58:47.479Z,3.65
2018-12-04T23:01:30.418Z,3.57
2018-12-04T23:04:00.708Z,3.54
2018-12-04T23:06:30.641Z,3.53
2018-12-04T23:09:00.588Z,3.50
2018-12-04T23:11:31.805Z,3.50
2018-12-04T23:14:01.827Z,3.47
2018-12-04T23:16:32.208Z,3.39
2018-12-04T23:19:02.912Z,3.35
2018-12-04T23:21:33.510Z,3.33
2018-12-04T23:24:03.892Z,3.34
2018-12-04T23:26:34.456Z,3.31
2018-12-04T23:29:06.027Z,3.27
2018-12-04T23:31:36.523Z,3.29
2018-12-04T23:34:07.367Z,3.23
2018-12-04T23:36:37.434Z,3.27
2018-12-04T23:39:09.527Z,3.23
2018-12-04T23:41:39.938Z,3.21
2018-12-04T23:44:10.100Z,3.15
2018-12-04T23:46:40.628Z,3.13
2018-12-04T23:49:12.300Z,3.15
2018-12-04T23:51:42.564Z,3.16
2018-12-04T23:54:13.314Z,3.15
2018-12-04T23:56:43.674Z,3.15
2018-12-04T23:59:13.707Z,3.17
